ADDS METAR Data INFO
IDs: Format: Raw Decoded Include TAF

Data at: 0354 UTC 20 Feb 2018

KXPY 200335Z AUTO 14009G15KT 9SM CLR 23/21 A3013 RMK A01
KXPY 200315Z AUTO 14009G14KT 9SM FEW070 24/21 A3013 RMK A01
KXPY 200255Z AUTO 14009G15KT 9SM BKN070 24/21 A3012 RMK A01
KXPY 200235Z AUTO 14010G17KT 10SM OVC070 24/21 A3012 RMK A01
KXPY 200215Z AUTO 14010G17KT 9SM FEW055 BKN070 24/21 A3012 RMK A01
KXPY 200155Z AUTO 14009G14KT 10SM BKN055 OVC065 24/21 A3012 RMK A01
KXPY 200135Z AUTO 14009KT 9SM FEW036 BKN060 BKN065 24/21 A3012 RMK A01
KXPY 200115Z AUTO 14009KT 10SM SCT037 SCT046 SCT070 24/21 A3012 RMK A01
KXPY 200055Z AUTO 14007KT 10SM FEW020 FEW025 SCT039 24/22 A3012 RMK A01
KXPY 200035Z AUTO 12006KT 10SM SCT021 SCT029 BKN060 24/22 A3012 RMK A01
KXPY 200015Z AUTO 11005KT 9SM FEW060 24/22 A3011 RMK A01
KXPY 192355Z AUTO 12005KT 9SM CLR 24/22 A3011 RMK A01
KXPY 192335Z AUTO 11006KT 9SM FEW055 24/21 A3011 RMK A01
KXPY 192315Z AUTO 13008KT 9SM FEW055 24/21 A3011 RMK A01
KXPY 192255Z AUTO 13007KT 9SM CLR 25/21 A3011 RMK A01
KXPY 192235Z AUTO 13010KT 9SM CLR 25/21 A3011 RMK A01
KXPY 192215Z AUTO 14009KT 10SM CLR 25/21 A3011 RMK A01
KXPY 192155Z AUTO 14010KT 10SM CLR 25/21 A3010 RMK A01
KXPY 192135Z AUTO 13010KT 10SM CLR 25/21 A3010 RMK A01
KXPY 192115Z AUTO 14010G17KT 9SM CLR 25/21 A3010 RMK A01
KXPY 192055Z AUTO 13013KT 9SM CLR 25/21 A3010 RMK A01
KXPY 192035Z AUTO 14008G15KT 10SM CLR 26/21 A3011 RMK A01
KXPY 192015Z AUTO 15013KT 10SM CLR 25/21 A3011 RMK A01
KXPY 191955Z AUTO 14013KT 10SM CLR 25/21 A3012 RMK A01
KXPY 191935Z AUTO 14010G16KT 9SM CLR 26/21 A3012 RMK A01
KXPY 191915Z AUTO 14011KT 9SM CLR 26/21 A3012 RMK A01
KXPY 191855Z AUTO 14011G16KT 9SM FEW060 25/21 A3013 RMK A01
KXPY 191835Z AUTO 16009G14KT 9SM BKN060 26/21 A3014 RMK A01
KXPY 191815Z AUTO 16008G15KT 10SM OVC060 26/20 A3015 RMK A01
KXPY 191755Z AUTO 16012G17KT 10SM BKN060 25/20 A3016 RMK A01
KXPY 191735Z AUTO 15011KT 9SM BKN060 26/20 A3017 RMK A01
KXPY 191715Z AUTO 16011G18KT 9SM BKN060 25/20 A3017 RMK A01
KXPY 191655Z AUTO 15012G17KT 10SM BKN055 25/21 A3017 RMK A01
KXPY 191635Z AUTO 15012KT 10SM SCT050 SCT055 25/21 A3018 RMK A01
KXPY 191615Z AUTO 14011KT 10SM SCT050 SCT060 25/21 A3018 RMK A01
KXPY 191555Z AUTO 13010KT 9SM FEW027 FEW060 25/20 A3017 RMK A01
KXPY 191535Z AUTO 14009KT 10SM FEW027 25/20 A3017 RMK A01
KXPY 191515Z AUTO 13008G13KT 10SM CLR 25/20 A3017 RMK A01
KXPY 191455Z AUTO 14010KT 10SM FEW049 24/20 A3016 RMK A01
KXPY 191435Z AUTO 15007KT 10SM FEW047 24/20 A3016 RMK A01
KXPY 191415Z AUTO 15008KT 10SM CLR 24/20 A3015 RMK A01
KXPY 191355Z AUTO 14007KT 10SM FEW055 23/19 A3014 RMK A01
KXPY 191335Z AUTO 15006KT 10SM FEW055 23/19 A3014 RMK A01
KXPY 191315Z AUTO 14006KT 10SM CLR 23/19 A3014 RMK A01
KXPY 191255Z AUTO 13005KT 10SM FEW055 22/19 A3013 RMK A01
KXPY 191235Z AUTO 14006KT 10SM CLR 22/19 A3013 RMK A01
KXPY 191215Z AUTO 15005KT 10SM CLR 22/18 A3013 RMK A01
KXPY 191155Z AUTO 15003KT 10SM CLR 22/19 A3013 RMK A01
KXPY 191135Z AUTO 16004KT 10SM CLR 22/19 A3012 RMK A01
KXPY 191115Z AUTO 15005KT 10SM CLR 22/18 A3012 RMK A01
KXPY 191055Z AUTO 16004KT 10SM CLR 22/19 A3012 RMK A01
KXPY 191035Z AUTO 17006KT 10SM CLR 22/19 A3012 RMK A01
KXPY 191015Z AUTO 17005KT 10SM CLR 22/19 A3012 RMK A01
KXPY 190955Z AUTO 16006KT 10SM CLR 22/18 A3011 RMK A01
KXPY 190935Z AUTO 16004KT 10SM CLR 21/18 A3011 RMK A01
KXPY 190915Z AUTO 17004KT 10SM CLR 21/19 A3012 RMK A01
KXPY 190855Z AUTO 15004KT 10SM CLR 22/19 A3012 RMK A01
KXPY 190835Z AUTO 16006KT 10SM CLR 22/19 A3012 RMK A01
KXPY 190815Z AUTO 15007KT 10SM CLR 22/19 A3011 RMK A01
KXPY 190755Z AUTO 16006KT 10SM CLR 22/19 A3011 RMK A01
KXPY 190735Z AUTO 15006KT 10SM CLR 22/19 A3012 RMK A01
KXPY 190715Z AUTO 16004KT 10SM CLR 22/19 A3012 RMK A01
KXPY 190655Z AUTO 15007KT 10SM CLR 23/19 A3013 RMK A01
KXPY 190635Z AUTO 15007KT 10SM CLR 22/19 A3013 RMK A01
KXPY 190615Z AUTO 14006KT 10SM CLR 22/19 A3013 RMK A01
KXPY 190555Z AUTO 14005KT 10SM CLR 22/20 A3014 RMK A01
KXPY 190535Z AUTO 13007KT 10SM CLR 22/20 A3014 RMK A01
KXPY 190515Z AUTO 13009KT 10SM CLR 22/20 A3015 RMK A01
KXPY 190455Z AUTO 13009KT 10SM CLR 22/20 A3015 RMK A01
KXPY 190435Z AUTO 13010G15KT 10SM CLR 22/20 A3015 RMK A01
KXPY 190415Z AUTO 13008KT 10SM CLR 22/20 A3015 RMK A01
KXPY 190355Z AUTO 13008KT 10SM CLR 22/20 A3016 RMK A01
KXPY 190335Z AUTO 12007G13KT 10SM CLR 21/20 A3016 RMK A01
KXPY 190315Z AUTO 12008KT 10SM CLR 21/20 A3016 RMK A01
KXPY 190255Z AUTO 11008KT 10SM CLR 22/20 A3016 RMK A01
KXPY 190235Z AUTO 11007KT 10SM CLR 22/20 A3016 RMK A01
KXPY 190215Z AUTO 10006KT 10SM CLR 22/20 A3016 RMK A01
KXPY 190155Z AUTO 11006KT 10SM CLR 22/20 A3016 RMK A01
KXPY 190135Z AUTO 11006KT 10SM CLR 22/20 A3015 RMK A01
KXPY 190115Z AUTO 10007KT 10SM CLR 22/20 A3015 RMK A01
KXPY 190055Z AUTO 10008KT 10SM CLR 22/20 A3015 RMK A01
KXPY 190035Z AUTO 10006KT 10SM CLR 22/20 A3015 RMK A01
KXPY 190015Z AUTO 09008KT 10SM CLR 22/20 A3015 RMK A01
KXPY 182355Z AUTO 10007KT 10SM CLR 22/20 A3015 RMK A01
KXPY 182335Z AUTO VRB06KT 10SM CLR 22/19 A3015 RMK A01
KXPY 182315Z AUTO 11008KT 10SM CLR 23/19 A3014 RMK A01
KXPY 182255Z AUTO VRB06KT 10SM CLR 23/18 A3014 RMK A01
KXPY 182235Z AUTO VRB06KT 10SM CLR 23/18 A3014 RMK A01
KXPY 182215Z AUTO 11007KT 10SM CLR 23/19 A3014 RMK A01
KXPY 182155Z AUTO 11007KT 10SM CLR 23/19 A3014 RMK A01
KXPY 182135Z AUTO 10008KT 10SM CLR 23/19 A3014 RMK A01
KXPY 182115Z AUTO 11006KT 10SM CLR 23/20 A3014 RMK A01
KXPY 182055Z AUTO 13008KT 10SM CLR 23/20 A3014 RMK A01
KXPY 182035Z AUTO 10008KT 10SM FEW013 23/20 A3015 RMK A01
KXPY 182015Z AUTO 12007KT 10SM FEW014 23/19 A3015 RMK A01
KXPY 181955Z AUTO 12006KT 10SM FEW014 23/20 A3016 RMK A01
KXPY 181935Z AUTO 12006KT 10SM FEW013 FEW030 23/20 A3016 RMK A01
KXPY 181915Z AUTO 12007KT 10SM FEW013 FEW019 FEW030 23/20 A3017 RMK A01
KXPY 181855Z AUTO 12006KT 10SM FEW013 SCT020 SCT028 23/20 A3018 RMK A01
KXPY 181835Z AUTO 12007KT 10SM FEW015 FEW021 FEW028 23/20 A3018 RMK A01
KXPY 181815Z AUTO 12006KT 10SM SCT016 SCT022 24/20 A3019 RMK A01
KXPY 181755Z AUTO 13006KT 10SM BKN019 BKN024 23/19 A3020 RMK A01
KXPY 181735Z AUTO 13003KT 10SM SCT019 SCT025 23/19 A3020 RMK A01
KXPY 181715Z AUTO 13006KT 10SM SCT018 24/19 A3021 RMK A01
KXPY 181655Z AUTO VRB05KT 10SM CLR 24/19 A3022 RMK A01
KXPY 181635Z AUTO 15004KT 10SM CLR 24/19 A3022 RMK A01
KXPY 181615Z AUTO 15004KT 10SM SCT020 24/19 A3022 RMK A01
KXPY 181555Z AUTO 15005KT 10SM OVC020 24/19 A3022 RMK A01